Time;durP1;ratioP1;P1;durP2;ratioP2;P2;SDS_P1;SDS_P2;PMS_P1;PMS_P2;Temp;Humidity;BMP_temperature;BMP_pressure;BME280_temperature;BME280_humidity;BME280_pressure;Samples;Min_cycle;Max_cycle;Signal;HPM_P1;HPM_P2
2022/05/01 00:02:24;;;;;;;14.05;7.67;;;;;;;7.60;66.64;101303.65;1597648;87;26019;-75
2022/05/01 00:04:50;;;;;;;12.68;7.58;;;;;;;7.60;66.68;101309.47;1598634;87;26009;-75
2022/05/01 00:07:16;;;;;;;9.95;8.00;;;;;;;7.59;66.70;101305.14;1586152;87;25854;-75
2022/05/01 00:09:42;;;;;;;14.65;9.53;;;;;;;7.61;66.90;101302.64;1606353;87;25860;-74
2022/05/01 00:12:09;;;;;;;15.00;8.23;;;;;;;7.65;66.95;101305.86;1609585;88;28103;-75
2022/05/01 00:14:36;;;;;;;14.10;7.80;;;;;;;7.64;67.16;101304.17;1607263;87;25852;-75
2022/05/01 00:17:03;;;;;;;14.20;7.70;;;;;;;7.61;67.24;101306.64;1590653;88;25854;-75
2022/05/01 00:19:29;;;;;;;14.70;8.45;;;;;;;7.59;67.52;101302.47;1614393;87;25983;-75
2022/05/01 00:21:59;;;;;;;14.13;7.62;;;;;;;7.56;67.65;101302.27;1620686;86;25763;-75
2022/05/01 00:24:27;;;;;;;11.88;7.53;;;;;;;7.52;67.73;101292.91;1629163;87;26956;-75
2022/05/01 00:26:54;;;;;;;12.55;7.75;;;;;;;7.51;67.98;101297.87;1618988;87;25801;-75
2022/05/01 00:29:20;;;;;;;17.27;7.42;;;;;;;7.49;68.10;101297.67;1619102;87;25870;-75
2022/05/01 00:31:46;;;;;;;17.87;7.47;;;;;;;7.42;68.06;101296.10;1611024;86;25759;-75
2022/05/01 00:36:57;;;;;;;12.30;7.78;;;;;;;7.33;68.22;101298.84;1603194;87;27534;-75
2022/05/01 00:39:23;;;;;;;12.40;8.13;;;;;;;7.30;68.31;101298.64;1613221;86;25974;-75
2022/05/01 00:41:49;;;;;;;14.33;8.15;;;;;;;7.32;68.31;101299.81;1614430;87;26418;-75
2022/05/01 00:44:21;;;;;;;11.33;7.25;;;;;;;7.31;68.45;101298.16;1613540;87;25764;-75
2022/05/01 00:46:50;;;;;;;11.57;6.90;;;;;;;7.28;68.55;101297.95;1613262;87;25792;-75
2022/05/01 00:49:21;;;;;;;15.93;7.65;;;;;;;7.26;68.61;101297.75;1625161;86;27523;-75
2022/05/01 00:52:09;;;;;;;12.20;8.23;;;;;;;7.22;68.79;101299.88;1601122;87;26597;-75
2022/05/01 00:54:39;;;;;;;15.35;8.43;;;;;;;7.18;69.08;101295.84;1600472;87;25886;-75
2022/05/01 00:57:07;;;;;;;12.30;7.80;;;;;;;7.20;69.15;101293.02;1609726;88;26267;-75
2022/05/01 00:59:37;;;;;;;10.05;6.65;;;;;;;7.20;69.16;101292.53;1610485;87;25451;-75
2022/05/01 01:02:04;;;;;;;13.72;7.47;;;;;;;7.20;69.00;101294.34;1619611;87;27473;-76
2022/05/01 01:04:31;;;;;;;12.53;7.10;;;;;;;7.16;68.83;101296.48;1631913;87;25843;-75
2022/05/01 01:06:58;;;;;;;11.22;7.30;;;;;;;7.12;68.86;101297.73;1619378;86;25929;-75
2022/05/01 01:09:24;;;;;;;13.40;8.18;;;;;;;7.10;68.84;101292.23;1601592;87;25980;-74
2022/05/01 01:14:35;;;;;;;14.47;8.75;;;;;;;7.13;68.93;101290.10;1610325;87;28395;-74
2022/05/01 01:17:01;;;;;;;14.58;9.33;;;;;;;7.16;68.96;101285.83;1620595;87;26199;-75
2022/05/01 01:19:27;;;;;;;15.48;10.50;;;;;;;7.17;68.76;101290.14;1606802;86;25811;-74
2022/05/01 01:21:55;;;;;;;18.62;11.18;;;;;;;7.17;68.67;101284.82;1608071;87;26480;-75
2022/05/01 01:24:21;;;;;;;20.25;11.15;;;;;;;7.20;68.59;101282.36;1606227;87;25823;-75
2022/05/01 01:26:47;;;;;;;19.73;10.63;;;;;;;7.19;68.53;101276.67;1606877;87;28290;-75
2022/05/01 01:31:59;;;;;;;18.87;11.12;;;;;;;7.16;68.37;101280.98;1619339;87;25856;-75
2022/05/01 01:34:30;;;;;;;17.10;11.63;;;;;;;7.11;68.40;101280.09;1599536;86;25793;-74
2022/05/01 01:36:57;;;;;;;23.40;12.45;;;;;;;7.07;68.72;101280.53;1570344;87;26220;-75
2022/05/01 01:39:25;;;;;;;16.45;10.82;;;;;;;7.03;68.93;101277.81;1597608;86;27651;-75
2022/05/01 01:41:54;;;;;;;17.73;10.38;;;;;;;6.99;69.06;101278.09;1600920;87;26531;-75
2022/05/01 01:44:23;;;;;;;17.92;9.05;;;;;;;6.95;69.11;101282.53;1599556;87;25962;-75
2022/05/01 01:46:49;;;;;;;17.87;9.33;;;;;;;6.90;69.18;101277.67;1602102;87;25852;-75
2022/05/01 01:49:16;;;;;;;22.17;9.90;;;;;;;6.82;69.13;101274.88;1608943;87;26372;-74
2022/05/01 01:51:43;;;;;;;15.25;9.10;;;;;;;6.75;68.99;101274.29;1601350;87;28321;-75
2022/05/01 01:54:09;;;;;;;15.55;8.95;;;;;;;6.69;68.92;101273.03;1606502;87;25829;-75
2022/05/01 01:56:36;;;;;;;15.45;8.35;;;;;;;6.64;68.76;101270.47;1611338;87;25816;-75
2022/05/01 01:59:02;;;;;;;14.03;9.25;;;;;;;6.62;68.77;101263.97;1601290;87;26202;-75
2022/05/01 02:01:29;;;;;;;16.05;10.25;;;;;;;6.63;68.99;101266.14;1592700;87;25859;-75
2022/05/01 02:03:57;;;;;;;16.02;8.85;;;;;;;6.63;69.28;101269.62;1585770;87;28307;-75
2022/05/01 02:06:23;;;;;;;16.40;9.23;;;;;;;6.61;69.16;101267.59;1597711;87;25941;-75
2022/05/01 02:08:49;;;;;;;15.43;9.20;;;;;;;6.59;69.31;101269.57;1603995;87;25799;-75
2022/05/01 02:11:17;;;;;;;16.73;9.10;;;;;;;6.55;69.01;101273.51;1597195;87;26288;-75
2022/05/01 02:13:43;;;;;;;18.02;9.80;;;;;;;6.47;68.84;101272.06;1621023;85;25832;-75
2022/05/01 02:16:09;;;;;;;13.28;9.18;;;;;;;6.42;69.40;101276.12;1638505;86;27918;-75
2022/05/01 02:18:35;;;;;;;13.43;9.05;;;;;;;6.39;69.84;101277.76;1602316;87;25895;-75
2022/05/01 02:23:46;;;;;;;15.00;9.23;;;;;;;6.25;69.43;101275.04;1605317;87;25766;-75
2022/05/01 02:26:13;;;;;;;17.70;7.95;;;;;;;6.18;69.61;101277.42;1592900;87;25992;-75
2022/05/01 02:28:39;;;;;;;15.72;8.95;;;;;;;6.14;69.38;101280.52;1582670;89;27642;-75
2022/05/01 02:31:05;;;;;;;19.90;9.00;;;;;;;6.08;69.39;101281.08;1608040;87;25842;-75
2022/05/01 02:33:31;;;;;;;13.28;8.53;;;;;;;6.04;69.43;101283.20;1628774;87;25894;-75
2022/05/01 02:35:57;;;;;;;20.52;9.70;;;;;;;5.97;69.49;101282.06;1631221;86;26748;-76
2022/05/01 02:38:24;;;;;;;17.67;10.63;;;;;;;5.96;69.84;101283.55;1621221;86;25871;-75
2022/05/01 02:40:50;;;;;;;13.43;9.10;;;;;;;5.89;69.69;101279.77;1597403;87;28105;-75
2022/05/01 02:43:16;;;;;;;13.78;9.18;;;;;;;5.88;69.92;101277.58;1608997;89;25797;-75
2022/05/01 02:45:42;;;;;;;14.75;9.18;;;;;;;5.85;69.76;101282.35;1609461;87;25793;-75
2022/05/01 02:48:08;;;;;;;16.17;9.78;;;;;;;5.79;69.64;101283.73;1606917;87;25802;-74
2022/05/01 02:50:36;;;;;;;17.55;9.43;;;;;;;5.77;69.80;101281.70;1602769;87;25784;-75
2022/05/01 02:53:04;;;;;;;16.42;9.18;;;;;;;5.74;69.78;101282.45;1586818;87;27559;-74
2022/05/01 02:55:32;;;;;;;15.05;8.65;;;;;;;5.68;69.85;101279.02;1625013;86;26519;-75
2022/05/01 02:57:58;;;;;;;14.50;9.85;;;;;;;5.66;69.89;101274.34;1624163;86;25871;-75
2022/05/01 03:00:24;;;;;;;15.95;10.48;;;;;;;5.60;69.82;101278.41;1586769;89;25990;-75
2022/05/01 03:02:51;;;;;;;20.45;10.58;;;;;;;5.59;69.91;101278.04;1588858;89;26073;-75
2022/05/01 03:05:17;;;;;;;18.77;11.53;;;;;;;5.61;70.39;101272.58;1587494;89;27487;-75
2022/05/01 03:07:44;;;;;;;13.78;9.35;;;;;;;5.56;70.36;101277.48;1583642;89;26520;-75
2022/05/01 03:10:12;;;;;;;14.83;8.38;;;;;;;5.45;70.42;101280.59;1587413;89;25902;-75
2022/05/01 03:12:38;;;;;;;11.73;8.23;;;;;;;5.40;70.66;101273.55;1587889;89;25832;-75
2022/05/01 03:15:09;;;;;;;10.20;7.37;;;;;;;5.34;71.15;101275.91;1588679;87;25923;-75
2022/05/01 03:23:06;;;;;;;18.02;7.75;;;;;;;5.24;71.92;101273.22;1634211;85;25345;-75
2022/05/01 03:25:33;;;;;;;11.57;6.95;;;;;;;5.22;72.04;101283.61;1622846;85;26607;-75
2022/05/01 03:27:59;;;;;;;12.80;8.18;;;;;;;5.17;71.71;101280.55;1634170;86;25904;-74
2022/05/01 03:30:25;;;;;;;11.73;7.87;;;;;;;5.10;71.77;101278.92;1618775;85;28106;-75
2022/05/01 03:32:52;;;;;;;11.75;7.72;;;;;;;5.06;71.99;101276.19;1639646;86;25800;-75
2022/05/01 03:35:18;;;;;;;11.78;7.67;;;;;;;5.03;72.20;101275.11;1582567;89;25827;-75
2022/05/01 03:37:45;;;;;;;15.15;8.85;;;;;;;5.03;72.22;101280.91;1597910;87;25876;-74
2022/05/01 03:40:15;;;;;;;15.80;8.65;;;;;;;5.02;72.42;101272.13;1625947;87;25681;-75
2022/05/01 03:42:42;;;;;;;12.50;8.75;;;;;;;5.04;72.59;101274.16;1609866;87;28133;-74
2022/05/01 03:45:09;;;;;;;20.50;10.55;;;;;;;5.03;72.51;101274.27;1614961;87;26031;-75
2022/05/01 03:47:37;;;;;;;22.42;11.20;;;;;;;5.02;72.59;101272.13;1592934;87;25918;-75
2022/05/01 03:50:05;;;;;;;18.35;11.57;;;;;;;5.05;72.75;101277.63;1608585;87;25869;-75
2022/05/01 03:52:33;;;;;;;17.87;9.88;;;;;;;5.07;72.90;101280.50;1606414;87;26056;-75
2022/05/01 03:54:59;;;;;;;12.98;8.93;;;;;;;5.07;72.56;101285.00;1595492;87;28351;-75
2022/05/01 03:57:25;;;;;;;14.95;9.33;;;;;;;5.05;72.42;101280.28;1602132;87;26608;-75
2022/05/01 03:59:52;;;;;;;13.62;8.70;;;;;;;5.09;72.67;101283.86;1599722;87;25336;-75
2022/05/01 04:02:18;;;;;;;17.35;9.15;;;;;;;5.15;72.99;101296.62;1588044;87;25862;-75
2022/05/01 04:04:46;;;;;;;16.12;8.33;;;;;;;5.13;72.77;101283.12;1604694;87;25813;-75
2022/05/01 04:07:12;;;;;;;11.08;8.10;;;;;;;5.12;72.75;101284.08;1606760;87;27565;-75
2022/05/01 04:09:39;;;;;;;13.78;7.95;;;;;;;5.12;72.96;101288.92;1612035;87;25625;-75
2022/05/01 04:12:06;;;;;;;12.25;7.58;;;;;;;5.12;73.33;101284.94;1587570;87;25982;-75
2022/05/01 04:14:34;;;;;;;11.53;8.03;;;;;;;5.07;73.63;101292.45;1608984;88;27063;-75
2022/05/01 04:17:00;;;;;;;11.30;8.00;;;;;;;5.05;73.77;101287.77;1595389;88;25998;-75
2022/05/01 04:19:28;;;;;;;9.28;7.12;;;;;;;5.05;73.89;101288.24;1608169;87;27479;-75
2022/05/01 04:21:56;;;;;;;9.93;7.35;;;;;;;5.07;73.86;101287.66;1586280;87;25810;-75
2022/05/01 04:24:23;;;;;;;17.90;8.78;;;;;;;5.09;73.77;101287.84;1594723;87;25832;-75
2022/05/01 04:26:49;;;;;;;18.87;11.10;;;;;;;5.16;74.27;101294.78;1615902;87;26562;-75
2022/05/01 04:32:00;;;;;;;16.85;9.88;;;;;;;5.34;74.38;101289.19;1613561;87;28354;-75
2022/05/01 04:34:27;;;;;;;19.73;10.90;;;;;;;5.46;74.60;101295.58;1582816;89;25772;-75
2022/05/01 04:36:53;;;;;;;17.75;10.90;;;;;;;5.54;74.56;101292.73;1595313;87;25753;-75
2022/05/01 04:39:19;;;;;;;13.40;10.05;;;;;;;5.63;74.83;101291.39;1627754;86;25796;-75
2022/05/01 04:41:46;;;;;;;21.05;11.93;;;;;;;5.75;74.83;101285.47;1632949;85;25918;-76
2022/05/01 04:44:12;;;;;;;17.37;13.13;;;;;;;5.87;74.94;101288.37;1579831;89;27452;-75
2022/05/01 04:46:38;;;;;;;19.48;12.98;;;;;;;5.99;75.11;101287.23;1593315;87;25819;-75
2022/05/01 04:49:04;;;;;;;22.60;13.45;;;;;;;6.10;75.47;101287.95;1596823;88;26475;-75
2022/05/01 04:51:30;;;;;;;19.77;12.05;;;;;;;6.21;75.85;101288.28;1587552;88;25918;-75
2022/05/01 04:53:57;;;;;;;19.95;12.98;;;;;;;6.32;76.13;101284.63;1599074;87;26556;-75
2022/05/01 04:59:09;;;;;;;17.17;11.45;;;;;;;6.54;76.59;101285.64;1598482;87;25762;-75
2022/05/01 05:01:35;;;;;;;16.20;11.15;;;;;;;6.65;77.32;101289.47;1610911;87;26501;-75
2022/05/01 05:04:05;;;;;;;30.90;11.78;;;;;;;6.73;77.39;101286.91;1597783;87;26048;-75
2022/05/01 05:06:31;;;;;;;21.35;13.50;;;;;;;6.85;77.65;101289.73;1606964;87;25592;-74
2022/05/01 05:11:42;;;;;;;20.40;13.32;;;;;;;7.12;77.49;101281.75;1594449;87;25846;-75
2022/05/01 05:14:08;;;;;;;19.48;12.88;;;;;;;7.28;77.29;101281.11;1606509;87;25766;-76
2022/05/01 05:16:34;;;;;;;19.27;13.80;;;;;;;7.42;77.36;101281.44;1623970;87;26609;-75
2022/05/01 05:19:00;;;;;;;23.62;14.53;;;;;;;7.55;76.89;101284.59;1604894;88;26497;-75
2022/05/01 05:21:27;;;;;;;20.88;13.98;;;;;;;7.71;77.14;101289.26;1589205;87;27547;-75
2022/05/01 05:23:56;;;;;;;17.17;13.40;;;;;;;7.84;76.65;101291.55;1605853;87;25869;-75
2022/05/01 05:26:22;;;;;;;16.35;12.95;;;;;;;7.96;76.71;101286.31;1606287;87;25987;-75
2022/05/01 05:28:49;;;;;;;17.15;12.88;;;;;;;8.11;76.69;101287.45;1606719;87;26568;-75
2022/05/01 05:31:15;;;;;;;20.75;12.40;;;;;;;8.22;76.08;101291.22;1614971;87;25955;-75
2022/05/01 05:33:41;;;;;;;16.85;12.15;;;;;;;8.35;75.83;101287.69;1593575;87;27557;-75
2022/05/01 05:36:08;;;;;;;17.17;12.35;;;;;;;8.46;75.66;101289.61;1606354;87;25964;-75
2022/05/01 05:38:35;;;;;;;19.73;12.90;;;;;;;8.60;75.14;101294.05;1605308;87;26510;-75
2022/05/01 05:41:01;;;;;;;18.65;14.20;;;;;;;8.70;74.76;101294.28;1614035;86;26121;-75
2022/05/01 05:43:27;;;;;;;17.75;11.48;;;;;;;8.80;74.57;101295.00;1594277;87;25840;-76
2022/05/01 05:45:53;;;;;;;17.75;12.07;;;;;;;8.94;74.53;101297.59;1606563;87;27462;-75
2022/05/01 05:48:20;;;;;;;16.05;11.85;;;;;;;9.06;74.44;101302.49;1595685;87;25999;-75
2022/05/01 05:50:46;;;;;;;19.57;12.13;;;;;;;9.20;74.38;101301.87;1624797;87;25866;-75
2022/05/01 05:53:12;;;;;;;22.65;12.35;;;;;;;9.32;73.77;101299.76;1606692;87;26490;-75
2022/05/01 05:55:38;;;;;;;17.80;12.28;;;;;;;9.45;73.67;101302.81;1604055;87;26208;-75
2022/05/01 05:58:04;;;;;;;22.00;13.05;;;;;;;9.58;73.78;101299.67;1588274;87;27523;-76
2022/05/01 06:00:31;;;;;;;18.65;13.10;;;;;;;9.72;73.38;101307.05;1626008;86;26588;-76
2022/05/01 06:02:57;;;;;;;22.35;13.03;;;;;;;9.82;73.01;101305.91;1598637;87;25694;-75
2022/05/01 06:05:23;;;;;;;17.75;12.78;;;;;;;9.94;72.83;101299.22;1602756;87;26523;-75
2022/05/01 06:07:50;;;;;;;17.17;12.20;;;;;;;10.06;72.32;101300.59;1596363;87;25333;-76
2022/05/01 06:10:16;;;;;;;16.82;12.18;;;;;;;10.20;72.02;101298.28;1617273;87;27710;-76
2022/05/01 06:12:44;;;;;;;18.37;11.78;;;;;;;10.34;71.55;101297.60;1616457;86;25874;-75
2022/05/01 06:15:11;;;;;;;13.93;11.25;;;;;;;10.48;72.21;101300.92;1601688;87;25758;-76
2022/05/01 06:17:38;;;;;;;18.48;11.73;;;;;;;10.62;71.68;101301.59;1604379;87;26667;-75
2022/05/01 06:20:05;;;;;;;18.80;12.23;;;;;;;10.75;72.09;101296.55;1603975;87;26445;-76
2022/05/01 06:22:32;;;;;;;17.77;11.15;;;;;;;10.90;72.00;101298.02;1606530;87;27492;-76
2022/05/01 06:24:59;;;;;;;16.80;10.82;;;;;;;11.03;71.45;101296.48;1596878;87;26391;-76
2022/05/01 06:27:25;;;;;;;18.10;11.40;;;;;;;11.17;70.34;101299.77;1610230;87;25778;-76
2022/05/01 06:29:51;;;;;;;14.55;10.80;;;;;;;11.26;69.64;101304.09;1588320;87;26339;-76
2022/05/01 06:32:19;;;;;;;19.82;10.98;;;;;;;11.37;69.45;101302.88;1631387;86;26348;-76
2022/05/01 06:34:47;;;;;;;14.93;10.40;;;;;;;11.48;68.93;101302.49;1617180;86;28195;-76
2022/05/01 06:37:14;;;;;;;12.55;10.18;;;;;;;11.60;68.90;101299.73;1579752;89;25898;-76
2022/05/01 06:39:40;;;;;;;15.20;9.88;;;;;;;11.72;68.66;101298.88;1585710;89;25865;-76
2022/05/01 06:42:09;;;;;;;18.42;11.55;;;;;;;11.85;68.89;101298.59;1582665;89;26555;-76
2022/05/01 06:44:35;;;;;;;18.12;10.35;;;;;;;11.96;67.73;101295.50;1583466;87;26046;-76
2022/05/01 06:47:02;;;;;;;16.20;11.33;;;;;;;12.04;67.43;101300.00;1580472;89;27479;-76
2022/05/01 06:49:28;;;;;;;17.17;11.05;;;;;;;12.08;67.44;101296.75;1580295;89;25554;-76
2022/05/01 06:51:54;;;;;;;13.90;10.25;;;;;;;12.16;67.90;101294.02;1583481;89;25845;-76
2022/05/01 06:54:22;;;;;;;15.65;10.50;;;;;;;12.25;68.09;101298.28;1604411;87;27099;-76
2022/05/01 06:56:48;;;;;;;14.13;9.90;;;;;;;12.31;67.54;101296.75;1585332;87;25604;-76
2022/05/01 06:59:15;;;;;;;18.23;11.35;;;;;;;12.39;66.90;101305.57;1592381;89;27447;-76
2022/05/01 07:01:41;;;;;;;14.93;11.35;;;;;;;12.49;66.90;101298.58;1583315;88;26278;-75
2022/05/01 07:04:08;;;;;;;22.35;12.23;;;;;;;12.59;66.67;101299.69;1585991;89;26550;-76
2022/05/01 07:06:34;;;;;;;17.87;12.07;;;;;;;12.65;66.42;101301.13;1597696;87;27085;-76
2022/05/01 07:09:00;;;;;;;18.75;11.78;;;;;;;12.71;66.19;101304.42;1607788;87;25828;-76
2022/05/01 07:11:27;;;;;;;17.90;11.43;;;;;;;12.78;66.59;101304.03;1588773;87;27473;-75
2022/05/01 07:13:53;;;;;;;16.17;11.73;;;;;;;12.89;66.14;101304.08;1585206;87;25762;-76
2022/05/01 07:16:20;;;;;;;17.35;12.07;;;;;;;12.99;66.19;101313.54;1583839;89;25923;-76
2022/05/01 07:18:47;;;;;;;16.75;10.53;;;;;;;13.10;65.82;101309.59;1586251;87;25883;-76
2022/05/01 07:21:13;;;;;;;14.80;11.30;;;;;;;13.20;66.19;101310.12;1580871;89;25923;-76
2022/05/01 07:23:39;;;;;;;18.20;10.65;;;;;;;13.30;65.23;101309.33;1580044;89;28154;-76
2022/05/01 07:26:05;;;;;;;13.20;9.95;;;;;;;13.36;64.38;101309.11;1580203;89;25825;-76
2022/05/01 07:28:33;;;;;;;14.98;10.23;;;;;;;13.44;64.18;101307.65;1580202;89;25771;-76
2022/05/01 07:30:59;;;;;;;14.53;8.65;;;;;;;13.52;63.50;101309.72;1580227;89;25791;-76
2022/05/01 07:33:26;;;;;;;12.73;9.58;;;;;;;13.58;63.23;101304.92;1579902;89;25807;-76
2022/05/01 07:35:53;;;;;;;11.63;9.03;;;;;;;13.63;62.82;101303.86;1589702;88;27458;-74
2022/05/01 07:38:19;;;;;;;12.78;9.33;;;;;;;13.72;63.63;101308.61;1589341;89;25359;-76
2022/05/01 07:40:46;;;;;;;10.65;7.15;;;;;;;13.78;63.04;101304.66;1580264;89;25876;-76
2022/05/01 07:43:12;;;;;;;10.85;6.90;;;;;;;13.86;62.42;101305.03;1589163;87;25874;-75
2022/05/01 07:45:39;;;;;;;12.90;8.33;;;;;;;13.97;61.96;101301.84;1580744;89;25749;-76
2022/05/01 07:48:05;;;;;;;9.68;6.72;;;;;;;14.05;61.31;101299.02;1580344;89;27467;-76
2022/05/01 07:50:32;;;;;;;8.25;5.72;;;;;;;14.09;60.51;101299.48;1580477;89;25845;-76
2022/05/01 07:52:58;;;;;;;9.68;6.92;;;;;;;14.14;60.37;101301.91;1580244;89;25839;-76
2022/05/01 07:55:24;;;;;;;10.10;6.15;;;;;;;14.23;59.70;101294.02;1589417;88;26641;-76
2022/05/01 07:57:51;;;;;;;7.87;5.80;;;;;;;14.33;60.03;101293.20;1589471;88;25931;-76
2022/05/01 08:00:17;;;;;;;7.58;5.47;;;;;;;14.40;58.90;101290.56;1580005;89;27453;-76
2022/05/01 08:05:29;;;;;;;10.48;5.33;;;;;;;14.52;57.93;101283.63;1580008;89;25951;-76
2022/05/01 08:07:57;;;;;;;6.53;5.70;;;;;;;14.63;58.51;101284.41;1580203;89;25959;-76
2022/05/01 08:10:24;;;;;;;8.55;6.70;;;;;;;14.75;57.82;101277.98;1580858;89;26529;-76
2022/05/01 08:12:50;;;;;;;13.30;7.78;;;;;;;14.85;58.23;101276.59;1579887;89;28390;-76
2022/05/01 08:15:19;;;;;;;9.50;6.67;;;;;;;14.93;57.93;101271.03;1589106;88;25848;-76
2022/05/01 08:17:46;;;;;;;9.68;6.17;;;;;;;15.04;57.71;101274.52;1581180;87;25558;-76
2022/05/01 08:23:06;;;;;;;3.98;3.12;;;;;;;15.18;52.41;101270.84;1583893;88;25818;-75
2022/05/01 08:25:32;;;;;;;5.17;2.75;;;;;;;15.33;52.06;101268.84;1582615;87;28565;-77
2022/05/01 08:27:59;;;;;;;5.65;4.95;;;;;;;15.43;50.12;101268.00;1588575;87;25628;-77
2022/05/01 08:30:26;;;;;;;9.05;5.17;;;;;;;15.51;53.30;101269.67;1587244;87;25834;-76
2022/05/01 08:32:54;;;;;;;4.60;2.70;;;;;;;15.64;54.46;101270.23;1588523;87;26471;-76
2022/05/01 08:35:20;;;;;;;4.87;2.70;;;;;;;15.78;52.18;101266.55;1629273;86;25883;-77
2022/05/01 08:37:46;;;;;;;3.27;2.25;;;;;;;15.86;49.39;101256.38;1599838;87;27457;-79
2022/05/01 08:40:14;;;;;;;3.72;2.58;;;;;;;15.97;50.35;101258.45;1608005;87;25926;-78
2022/05/01 08:42:41;;;;;;;8.55;2.83;;;;;;;16.08;49.93;101259.75;1610149;87;25781;-79
2022/05/01 08:45:10;;;;;;;6.75;2.45;;;;;;;16.17;49.15;101257.97;1604210;87;26552;-79
2022/05/01 08:47:44;;;;;;;5.80;3.42;;;;;;;16.21;47.25;101257.02;1612034;87;25819;-79
2022/05/01 08:50:11;;;;;;;4.67;2.60;;;;;;;16.23;44.90;101254.13;1600598;88;27658;-78
2022/05/01 08:52:38;;;;;;;4.55;2.58;;;;;;;16.21;45.56;101248.40;1586764;89;26550;-78
2022/05/01 08:55:06;;;;;;;4.35;2.55;;;;;;;16.27;46.42;101251.33;1587014;89;25876;-77
2022/05/01 08:57:33;;;;;;;3.72;2.40;;;;;;;16.35;45.20;101254.65;1580284;89;25865;-78
2022/05/01 09:00:01;;;;;;;5.50;2.60;;;;;;;16.38;44.31;101253.41;1580244;89;25822;-78
2022/05/01 09:02:32;;;;;;;5.47;3.25;;;;;;;16.41;43.97;101248.41;1583722;88;27468;-78
2022/05/01 09:04:59;;;;;;;5.15;3.37;;;;;;;16.44;43.89;101246.64;1584692;89;25841;-77
2022/05/01 09:07:26;;;;;;;4.17;2.60;;;;;;;16.48;44.54;101247.89;1580493;89;25574;-78
2022/05/01 09:09:52;;;;;;;4.22;2.72;;;;;;;16.47;43.74;101242.16;1588822;89;25931;-76
2022/05/01 09:15:05;;;;;;;5.75;2.83;;;;;;;16.54;42.82;101247.59;1590231;87;27484;-77
2022/05/01 09:17:31;;;;;;;7.20;2.72;;;;;;;16.56;44.07;101243.64;1583697;87;25936;-78
2022/05/01 09:20:10;;;;;;;6.58;2.45;;;;;;;16.69;44.95;101248.20;1597566;87;25823;-77
2022/05/01 09:22:52;;;;;;;4.25;3.00;;;;;;;16.81;45.18;101247.84;1632114;85;25871;-78
2022/05/01 09:25:24;;;;;;;5.10;2.80;;;;;;;16.93;45.01;101246.17;1638482;85;25831;-77
2022/05/01 09:27:52;;;;;;;4.55;2.67;;;;;;;17.01;43.77;101241.88;1578373;89;27500;-77
2022/05/01 09:30:20;;;;;;;6.72;3.15;;;;;;;17.05;44.06;101243.62;1613792;87;43635;-77
2022/05/01 09:32:48;;;;;;;7.05;3.45;;;;;;;17.13;44.75;101245.56;1593811;87;25808;-78
2022/05/01 09:35:34;;;;;;;4.05;2.70;;;;;;;17.17;43.14;101241.94;1624313;86;25904;-77
2022/05/01 09:38:15;;;;;;;4.03;2.85;;;;;;;17.11;42.53;101237.37;1630968;85;25799;-77
2022/05/01 09:40:48;;;;;;;6.22;3.17;;;;;;;17.09;42.19;101233.51;1624975;86;28320;-78
2022/05/01 09:43:42;;;;;;;6.00;2.67;;;;;;;17.06;42.46;101231.25;1571496;89;26032;-78
2022/05/01 09:46:23;;;;;;;3.62;2.27;;;;;;;17.08;42.45;101233.22;1589056;87;26344;-78
2022/05/01 09:49:10;;;;;;;9.13;2.77;;;;;;;17.17;42.36;101225.69;1634306;86;25936;-78
2022/05/01 09:51:43;;;;;;;4.55;2.75;;;;;;;17.20;42.12;101229.30;1635854;86;26475;-78
2022/05/01 09:54:18;;;;;;;4.55;3.05;;;;;;;17.26;42.83;101219.80;1603268;88;28314;-78
2022/05/01 09:56:47;;;;;;;6.97;2.47;;;;;;;17.39;42.49;101226.51;1598231;89;26048;-77
2022/05/01 09:59:15;;;;;;;4.53;2.77;;;;;;;17.46;42.00;101217.00;1599590;88;26563;-78
2022/05/01 10:02:04;;;;;;;5.00;2.42;;;;;;;17.51;40.13;101219.93;1601487;87;25911;-78
2022/05/01 10:04:36;;;;;;;3.42;2.60;;;;;;;17.51;40.78;101208.55;1629858;81;25922;-78
2022/05/01 10:10:20;;;;;;;6.12;2.47;;;;;;;17.59;41.03;101204.77;1683700;81;26547;31
2022/05/01 10:12:47;;;;;;;3.70;2.30;;;;;;;17.64;40.49;101202.25;1693697;83;26386;-78
2022/05/01 10:15:15;;;;;;;4.97;2.30;;;;;;;17.68;40.64;101200.76;1674642;84;26856;-77
2022/05/01 10:17:42;;;;;;;3.75;2.35;;;;;;;17.73;40.78;101196.05;1677351;84;26090;-79
2022/05/01 10:20:11;;;;;;;4.40;2.95;;;;;;;17.81;41.19;101196.61;1662304;84;27463;-78
2022/05/01 10:22:38;;;;;;;3.62;2.20;;;;;;;17.81;40.48;101193.06;1649082;85;25927;-78
2022/05/01 10:25:06;;;;;;;5.47;2.40;;;;;;;17.73;40.14;101188.72;1653747;85;25897;-78
2022/05/01 10:27:56;;;;;;;2.70;1.90;;;;;;;17.65;40.99;101188.99;1657991;85;26564;-78
2022/05/01 10:33:34;;;;;;;3.08;2.30;;;;;;;17.50;38.07;101186.59;1697434;80;27472;-78
2022/05/01 10:36:37;;;;;;;7.30;2.62;;;;;;;17.60;38.58;101188.28;1727300;80;26543;-77
2022/05/01 10:39:17;;;;;;;4.55;2.17;;;;;;;17.66;39.13;101183.34;1776069;80;25729;-77
2022/05/01 10:47:37;;;;;;;5.28;2.22;;;;;;;17.85;36.51;101180.73;1655912;86;27638;-78
2022/05/01 10:50:07;;;;;;;3.92;2.40;;;;;;;17.86;38.38;101183.20;1683335;84;26145;-78
2022/05/01 10:52:34;;;;;;;2.75;2.42;;;;;;;18.01;38.97;101173.39;1682363;84;25812;-78
2022/05/01 10:55:06;;;;;;;4.08;2.40;;;;;;;18.01;38.97;101173.39;1658209;86;25900;-78
2022/05/01 10:57:33;;;;;;;6.75;2.27;;;;;;;18.06;38.49;101171.70;1628728;86;25785;-79
2022/05/01 11:00:12;;;;;;;4.37;2.50;;;;;;;18.07;39.08;101167.91;1630020;86;27461;-78
2022/05/01 11:02:48;;;;;;;3.50;2.60;;;;;;;18.11;39.39;101162.90;1630817;87;26509;-78
2022/05/01 11:05:40;;;;;;;3.80;2.92;;;;;;;18.23;39.58;101162.47;1647501;80;25795;-78
2022/05/01 11:08:15;;;;;;;3.37;2.37;;;;;;;18.34;37.38;101161.73;1709976;80;26609;-76
2022/05/01 11:10:43;;;;;;;5.03;2.42;;;;;;;18.36;39.36;101155.56;1755400;80;25839;-77
2022/05/01 11:13:16;;;;;;;4.70;2.52;;;;;;;18.41;36.66;101157.08;1717004;78;27452;-78
2022/05/01 11:15:47;;;;;;;5.25;2.62;;;;;;;18.37;35.78;101157.20;1670965;80;26510;-78
2022/05/01 11:18:13;;;;;;;5.28;2.40;;;;;;;18.35;35.87;101154.72;1697515;83;25754;-79
2022/05/01 11:20:40;;;;;;;5.10;2.42;;;;;;;18.39;36.67;101150.50;1700112;83;25861;-77
2022/05/01 11:23:33;;;;;;;6.10;3.05;;;;;;;18.51;36.66;101151.16;1711577;83;25898;-77
2022/05/01 11:26:09;;;;;;;3.60;2.72;;;;;;;18.56;36.13;101152.67;1702475;82;27469;-77
2022/05/01 11:28:54;;;;;;;3.67;2.50;;;;;;;18.63;36.78;101147.46;1737960;82;25900;-78
2022/05/01 11:31:44;;;;;;;4.65;2.50;;;;;;;18.72;36.21;101150.19;1747316;81;25928;-77
2022/05/01 11:34:22;;;;;;;4.85;2.45;;;;;;;18.78;37.32;101143.01;1737214;82;25985;-78
2022/05/01 11:37:07;;;;;;;3.20;2.27;;;;;;;18.87;37.43;101145.72;1724399;82;25859;-77
2022/05/01 11:39:51;;;;;;;6.05;2.58;;;;;;;18.77;36.38;101142.20;1725367;81;27458;-78
2022/05/01 11:42:35;;;;;;;2.83;2.10;;;;;;;18.65;36.61;101142.64;1737170;82;25786;-79
2022/05/01 11:45:04;;;;;;;3.50;2.45;;;;;;;18.56;36.68;101142.66;1715751;82;25798;-78
2022/05/01 11:47:33;;;;;;;3.92;2.70;;;;;;;18.40;35.68;101137.26;1736182;81;26574;-78
2022/05/01 11:50:00;;;;;;;4.45;2.50;;;;;;;18.25;35.25;101134.08;1748003;80;25925;-79
2022/05/01 12:03:52;;;;;;;5.70;2.83;;;;;;;18.71;36.93;101116.50;1681678;83;25709;-79
2022/05/01 12:09:30;;;;;;;4.28;2.30;;;;;;;18.98;36.88;101120.53;1736533;79;25896;-77
2022/05/01 12:11:57;;;;;;;3.98;2.70;;;;;;;19.10;35.76;101127.66;1740780;81;25458;-78
2022/05/01 12:14:43;;;;;;;5.10;3.27;;;;;;;19.17;36.97;101117.55;1742140;78;25987;31
2022/05/01 12:17:18;;;;;;;5.70;3.00;;;;;;;19.27;37.23;101115.62;1681004;81;27068;-78
2022/05/01 12:19:43;;;;;;;9.75;2.65;;;;;;;19.43;37.26;101112.81;1744492;80;28337;-78
2022/05/01 12:22:13;;;;;;;5.28;2.35;;;;;;;19.50;35.82;101114.91;1745537;80;26105;-78
2022/05/01 12:24:46;;;;;;;3.15;2.25;;;;;;;19.49;35.94;101115.44;1733827;78;26901;31
2022/05/01 12:27:15;;;;;;;3.42;2.65;;;;;;;19.46;36.08;101109.65;1716261;82;26859;-78
2022/05/01 12:29:54;;;;;;;4.95;2.33;;;;;;;19.50;36.36;101113.03;1709024;83;25947;-78